sensor_id;sensor_type;location;lat;lon;timestamp;pressure;altitude;pressure_sealevel;temperature;humidity
29903;BME280;30288;50.514;9.678;2023-05-08T00:00:10;99139.59;;;12.16;100.00
29903;BME280;30288;50.514;9.678;2023-05-08T00:02:15;99139.59;;;12.16;100.00
29903;BME280;30288;50.514;9.678;2023-05-08T00:04:21;99138.09;;;12.09;100.00
29903;BME280;30288;50.514;9.678;2023-05-08T00:06:26;99138.53;;;11.94;100.00
29903;BME280;30288;50.514;9.678;2023-05-08T00:08:34;99140.28;;;11.92;100.00
29903;BME280;30288;50.514;9.678;2023-05-08T00:10:40;99139.44;;;11.92;100.00
29903;BME280;30288;50.514;9.678;2023-05-08T00:12:45;99142.16;;;11.84;100.00
29903;BME280;30288;50.514;9.678;2023-05-08T00:14:51;99138.78;;;11.85;100.00
29903;BME280;30288;50.514;9.678;2023-05-08T00:16:56;99134.78;;;11.76;100.00
29903;BME280;30288;50.514;9.678;2023-05-08T00:19:01;99144.19;;;11.70;100.00
29903;BME280;30288;50.514;9.678;2023-05-08T00:21:07;99134.97;;;11.69;100.00
29903;BME280;30288;50.514;9.678;2023-05-08T00:23:12;99139.94;;;11.73;100.00
29903;BME280;30288;50.514;9.678;2023-05-08T00:25:19;99140.88;;;11.68;100.00
29903;BME280;30288;50.514;9.678;2023-05-08T00:27:25;99149.47;;;11.61;100.00
29903;BME280;30288;50.514;9.678;2023-05-08T00:29:30;99144.56;;;11.55;100.00
29903;BME280;30288;50.514;9.678;2023-05-08T00:31:35;99150.38;;;11.58;100.00
29903;BME280;30288;50.514;9.678;2023-05-08T00:33:40;99147.97;;;11.54;100.00
29903;BME280;30288;50.514;9.678;2023-05-08T00:35:46;99146.78;;;11.67;100.00
29903;BME280;30288;50.514;9.678;2023-05-08T00:37:51;99151.13;;;11.62;100.00
29903;BME280;30288;50.514;9.678;2023-05-08T00:39:56;99152.94;;;11.57;100.00
29903;BME280;30288;50.514;9.678;2023-05-08T00:42:04;99145.78;;;11.74;100.00
29903;BME280;30288;50.514;9.678;2023-05-08T00:44:09;99152.56;;;11.72;100.00
29903;BME280;30288;50.514;9.678;2023-05-08T00:46:15;99151.75;;;11.70;100.00
29903;BME280;30288;50.514;9.678;2023-05-08T00:48:21;99144.47;;;11.59;100.00
29903;BME280;30288;50.514;9.678;2023-05-08T00:50:27;99149.59;;;11.56;100.00
29903;BME280;30288;50.514;9.678;2023-05-08T00:52:33;99144.50;;;11.58;100.00
29903;BME280;30288;50.514;9.678;2023-05-08T00:54:38;99152.69;;;11.66;100.00
29903;BME280;30288;50.514;9.678;2023-05-08T00:56:44;99149.47;;;11.61;100.00
29903;BME280;30288;50.514;9.678;2023-05-08T00:58:53;99156.88;;;11.67;100.00
29903;BME280;30288;50.514;9.678;2023-05-08T01:00:59;99150.88;;;11.71;100.00
29903;BME280;30288;50.514;9.678;2023-05-08T01:03:04;99146.69;;;11.70;100.00
29903;BME280;30288;50.514;9.678;2023-05-08T01:05:11;99151.03;;;11.65;100.00
29903;BME280;30288;50.514;9.678;2023-05-08T01:07:17;99148.72;;;11.57;100.00
29903;BME280;30288;50.514;9.678;2023-05-08T01:09:23;99146.06;;;11.62;100.00
29903;BME280;30288;50.514;9.678;2023-05-08T01:11:32;99141.03;;;11.62;100.00
29903;BME280;30288;50.514;9.678;2023-05-08T01:13:55;99148.59;;;11.62;100.00
29903;BME280;30288;50.514;9.678;2023-05-08T01:16:10;99149.31;;;11.67;100.00
29903;BME280;30288;50.514;9.678;2023-05-08T01:18:25;99150.38;;;11.58;100.00
29903;BME280;30288;50.514;9.678;2023-05-08T01:20:41;99147.16;;;11.53;100.00
29903;BME280;30288;50.514;9.678;2023-05-08T01:23:37;99153.16;;;11.48;100.00
29903;BME280;30288;50.514;9.678;2023-05-08T01:26:06;99147.97;;;11.54;100.00
29903;BME280;30288;50.514;9.678;2023-05-08T01:28:43;99151.38;;;11.51;100.00
29903;BME280;30288;50.514;9.678;2023-05-08T01:31:11;99152.25;;;11.50;100.00
29903;BME280;30288;50.514;9.678;2023-05-08T01:33:28;99151.28;;;11.56;100.00
29903;BME280;30288;50.514;9.678;2023-05-08T01:35:42;99156.16;;;11.62;100.00
29903;BME280;30288;50.514;9.678;2023-05-08T01:37:54;99151.44;;;11.50;100.00
29903;BME280;30288;50.514;9.678;2023-05-08T01:40:11;99151.28;;;11.56;100.00
29903;BME280;30288;50.514;9.678;2023-05-08T01:42:28;99153.06;;;11.52;100.00
29903;BME280;30288;50.514;9.678;2023-05-08T01:44:44;99160.69;;;11.49;100.00
29903;BME280;30288;50.514;9.678;2023-05-08T01:46:52;99163.34;;;11.45;100.00
29903;BME280;30288;50.514;9.678;2023-05-08T01:49:07;99155.56;;;11.52;100.00
29903;BME280;30288;50.514;9.678;2023-05-08T01:51:18;99161.44;;;11.53;100.00
29903;BME280;30288;50.514;9.678;2023-05-08T01:53:28;99162.31;;;11.52;100.00
29903;BME280;30288;50.514;9.678;2023-05-08T01:55:36;99165.69;;;11.51;100.00
29903;BME280;30288;50.514;9.678;2023-05-08T01:57:47;99164.69;;;11.58;100.00
29903;BME280;30288;50.514;9.678;2023-05-08T01:59:54;99161.34;;;11.56;100.00
29903;BME280;30288;50.514;9.678;2023-05-08T02:02:01;99159.69;;;11.55;100.00
29903;BME280;30288;50.514;9.678;2023-05-08T02:04:10;99163.41;;;11.41;100.00
29903;BME280;30288;50.514;9.678;2023-05-08T02:06:20;99172.03;;;11.31;100.00
29903;BME280;30288;50.514;9.678;2023-05-08T02:08:27;99158.81;;;11.23;100.00
29903;BME280;30288;50.514;9.678;2023-05-08T02:10:34;99162.22;;;11.21;100.00
29903;BME280;30288;50.514;9.678;2023-05-08T02:12:43;99161.50;;;11.16;100.00
29903;BME280;30288;50.514;9.678;2023-05-08T02:14:50;99168.38;;;11.09;100.00
29903;BME280;30288;50.514;9.678;2023-05-08T02:16:57;99170.97;;;11.06;100.00
29903;BME280;30288;50.514;9.678;2023-05-08T02:19:04;99166.06;;;11.00;100.00
29903;BME280;30288;50.514;9.678;2023-05-08T02:21:13;99165.31;;;10.96;100.00
29903;BME280;30288;50.514;9.678;2023-05-08T02:23:21;99170.56;;;10.87;100.00
29903;BME280;30288;50.514;9.678;2023-05-08T02:25:28;99174.78;;;10.87;100.00
29903;BME280;30288;50.514;9.678;2023-05-08T02:27:35;99172.34;;;10.82;100.00
29903;BME280;30288;50.514;9.678;2023-05-08T02:29:41;99170.13;;;10.69;100.00
29903;BME280;30288;50.514;9.678;2023-05-08T02:31:48;99175.22;;;10.66;100.00
29903;BME280;30288;50.514;9.678;2023-05-08T02:33:53;99170.31;;;10.60;100.00
29903;BME280;30288;50.514;9.678;2023-05-08T02:36:00;99181.44;;;10.49;100.00
29903;BME280;30288;50.514;9.678;2023-05-08T02:38:11;99178.28;;;10.40;100.00
29903;BME280;30288;50.514;9.678;2023-05-08T02:40:20;99179.16;;;10.37;100.00
29903;BME280;30288;50.514;9.678;2023-05-08T02:42:26;99170.84;;;10.35;100.00
29903;BME280;30288;50.514;9.678;2023-05-08T02:44:32;99166.03;;;10.23;100.00
29903;BME280;30288;50.514;9.678;2023-05-08T02:46:47;99173.66;;;10.19;100.00
29903;BME280;30288;50.514;9.678;2023-05-08T02:48:57;99176.34;;;10.08;100.00
29903;BME280;30288;50.514;9.678;2023-05-08T02:51:17;99173.72;;;10.14;100.00
29903;BME280;30288;50.514;9.678;2023-05-08T02:53:49;99173.81;;;10.08;100.00
29903;BME280;30288;50.514;9.678;2023-05-08T02:56:07;99172.94;;;10.12;100.00
29903;BME280;30288;50.514;9.678;2023-05-08T02:58:18;99177.25;;;10.04;100.00
29903;BME280;30288;50.514;9.678;2023-05-08T03:00:30;99172.28;;;10.02;100.00
29903;BME280;30288;50.514;9.678;2023-05-08T03:02:40;99168.00;;;10.06;100.00
29903;BME280;30288;50.514;9.678;2023-05-08T03:04:50;99172.22;;;10.05;100.00
29903;BME280;30288;50.514;9.678;2023-05-08T03:06:57;99169.69;;;10.07;100.00
29903;BME280;30288;50.514;9.678;2023-05-08T03:09:06;99173.13;;;10.01;100.00
29903;BME280;30288;50.514;9.678;2023-05-08T03:11:21;99172.22;;;10.04;100.00
29903;BME280;30288;50.514;9.678;2023-05-08T03:13:31;99169.81;;;9.98;100.00
29903;BME280;30288;50.514;9.678;2023-05-08T03:15:43;99170.81;;;9.91;100.00
29903;BME280;30288;50.514;9.678;2023-05-08T03:17:53;99173.50;;;9.82;100.00
29903;BME280;30288;50.514;9.678;2023-05-08T03:20:03;99170.91;;;9.85;100.00
29903;BME280;30288;50.514;9.678;2023-05-08T03:22:09;99175.31;;;9.74;100.00
29903;BME280;30288;50.514;9.678;2023-05-08T03:24:19;99169.47;;;9.73;100.00
29903;BME280;30288;50.514;9.678;2023-05-08T03:26:26;99175.34;;;9.71;100.00
29903;BME280;30288;50.514;9.678;2023-05-08T03:28:32;99165.28;;;9.71;100.00
29903;BME280;30288;50.514;9.678;2023-05-08T03:30:40;99173.56;;;9.79;100.00
29903;BME280;30288;50.514;9.678;2023-05-08T03:32:49;99170.13;;;9.83;100.00
29903;BME280;30288;50.514;9.678;2023-05-08T03:34:58;99185.22;;;9.83;100.00
29903;BME280;30288;50.514;9.678;2023-05-08T03:37:05;99186.13;;;9.79;100.00
29903;BME280;30288;50.514;9.678;2023-05-08T03:39:10;99186.22;;;9.73;100.00
29903;BME280;30288;50.514;9.678;2023-05-08T03:41:18;99187.00;;;9.75;100.00
29903;BME280;30288;50.514;9.678;2023-05-08T03:43:24;99185.31;;;9.77;100.00
29903;BME280;30288;50.514;9.678;2023-05-08T03:45:34;99183.50;;;9.85;100.00
29903;BME280;30288;50.514;9.678;2023-05-08T03:47:40;99173.38;;;9.88;100.00
29903;BME280;30288;50.514;9.678;2023-05-08T03:49:48;99176.75;;;9.87;100.00
29903;BME280;30288;50.514;9.678;2023-05-08T03:51:55;99181.81;;;9.84;100.00
29903;BME280;30288;50.514;9.678;2023-05-08T03:54:00;99180.94;;;9.86;100.00
29903;BME280;30288;50.514;9.678;2023-05-08T03:56:06;99183.28;;;9.97;100.00
29903;BME280;30288;50.514;9.678;2023-05-08T03:58:20;99174.91;;;9.95;100.00
29903;BME280;30288;50.514;9.678;2023-05-08T04:00:42;99181.78;;;9.88;100.00
29903;BME280;30288;50.514;9.678;2023-05-08T04:03:04;99183.56;;;9.82;100.00
29903;BME280;30288;50.514;9.678;2023-05-08T04:05:23;99184.31;;;9.85;100.00
29903;BME280;30288;50.514;9.678;2023-05-08T04:07:37;99186.81;;;9.87;100.00
29903;BME280;30288;50.514;9.678;2023-05-08T04:09:58;99182.66;;;9.84;100.00
29903;BME280;30288;50.514;9.678;2023-05-08T04:12:13;99191.88;;;9.84;100.00
29903;BME280;30288;50.514;9.678;2023-05-08T04:14:26;99190.13;;;9.89;100.00
29903;BME280;30288;50.514;9.678;2023-05-08T04:16:38;99195.13;;;9.92;100.00
29903;BME280;30288;50.514;9.678;2023-05-08T04:18:46;99198.47;;;9.91;100.00
29903;BME280;30288;50.514;9.678;2023-05-08T04:20:53;99197.72;;;9.87;100.00
29903;BME280;30288;50.514;9.678;2023-05-08T04:23:01;99198.38;;;9.97;100.00
29903;BME280;30288;50.514;9.678;2023-05-08T04:25:09;99207.69;;;9.92;100.00
29903;BME280;30288;50.514;9.678;2023-05-08T04:27:15;99205.72;;;10.07;100.00
29903;BME280;30288;50.514;9.678;2023-05-08T04:29:23;99197.28;;;10.10;100.00
29903;BME280;30288;50.514;9.678;2023-05-08T04:31:29;99203.06;;;10.15;100.00
29903;BME280;30288;50.514;9.678;2023-05-08T04:33:34;99208.03;;;10.21;100.00
29903;BME280;30288;50.514;9.678;2023-05-08T04:35:40;99207.91;;;10.27;100.00
29903;BME280;30288;50.514;9.678;2023-05-08T04:37:47;99209.53;;;10.30;100.00
29903;BME280;30288;50.514;9.678;2023-05-08T04:39:53;99213.63;;;10.35;100.00
29903;BME280;30288;50.514;9.678;2023-05-08T04:41:58;99216.81;;;10.45;100.00
29903;BME280;30288;50.514;9.678;2023-05-08T04:44:08;99215.13;;;10.44;100.00
29903;BME280;30288;50.514;9.678;2023-05-08T04:46:16;99210.88;;;10.46;100.00
29903;BME280;30288;50.514;9.678;2023-05-08T04:48:22;99217.44;;;10.55;100.00
29903;BME280;30288;50.514;9.678;2023-05-08T04:50:27;99206.53;;;10.54;100.00
29903;BME280;30288;50.514;9.678;2023-05-08T04:52:32;99209.81;;;10.58;100.00
29903;BME280;30288;50.514;9.678;2023-05-08T04:54:38;99214.75;;;10.62;100.00
29903;BME280;30288;50.514;9.678;2023-05-08T04:56:43;99220.66;;;10.60;100.00
29903;BME280;30288;50.514;9.678;2023-05-08T04:58:48;99212.06;;;10.70;100.00
29903;BME280;30288;50.514;9.678;2023-05-08T05:00:55;99215.31;;;10.75;100.00
29903;BME280;30288;50.514;9.678;2023-05-08T05:03:03;99219.50;;;10.76;100.00
29903;BME280;30288;50.514;9.678;2023-05-08T05:05:09;99221.91;;;10.82;100.00
29903;BME280;30288;50.514;9.678;2023-05-08T05:07:15;99219.41;;;10.82;100.00
29903;BME280;30288;50.514;9.678;2023-05-08T05:09:20;99223.44;;;10.89;100.00
29903;BME280;30288;50.514;9.678;2023-05-08T05:11:27;99212.41;;;10.94;100.00
29903;BME280;30288;50.514;9.678;2023-05-08T05:13:32;99224.00;;;11.02;100.00
29903;BME280;30288;50.514;9.678;2023-05-08T05:15:41;99227.25;;;11.07;100.00
29903;BME280;30288;50.514;9.678;2023-05-08T05:17:48;99224.75;;;11.05;100.00
29903;BME280;30288;50.514;9.678;2023-05-08T05:19:55;99226.47;;;11.03;100.00
29903;BME280;30288;50.514;9.678;2023-05-08T05:22:01;99226.16;;;11.18;100.00
29903;BME280;30288;50.514;9.678;2023-05-08T05:24:08;99232.56;;;11.31;100.00
29903;BME280;30288;50.514;9.678;2023-05-08T05:26:13;99231.47;;;11.43;100.00
29903;BME280;30288;50.514;9.678;2023-05-08T05:28:18;99228.91;;;11.45;100.00
29903;BME280;30288;50.514;9.678;2023-05-08T05:30:24;99224.59;;;11.50;100.00
29903;BME280;30288;50.514;9.678;2023-05-08T05:32:29;99231.22;;;11.54;100.00
29903;BME280;30288;50.514;9.678;2023-05-08T05:34:34;99230.19;;;11.61;100.00
29903;BME280;30288;50.514;9.678;2023-05-08T05:36:42;99236.97;;;11.59;100.00
29903;BME280;30288;50.514;9.678;2023-05-08T05:38:48;99230.28;;;11.58;100.00
29903;BME280;30288;50.514;9.678;2023-05-08T05:40:53;99234.47;;;11.59;100.00
29903;BME280;30288;50.514;9.678;2023-05-08T05:42:59;99238.34;;;11.72;100.00
29903;BME280;30288;50.514;9.678;2023-05-08T05:45:07;99241.28;;;11.89;100.00
29903;BME280;30288;50.514;9.678;2023-05-08T05:47:13;99245.34;;;11.96;100.00
29903;BME280;30288;50.514;9.678;2023-05-08T05:49:18;99245.09;;;12.05;100.00
29903;BME280;30288;50.514;9.678;2023-05-08T05:51:24;99247.63;;;12.05;100.00
29903;BME280;30288;50.514;9.678;2023-05-08T05:53:33;99248.38;;;12.09;100.00
29903;BME280;30288;50.514;9.678;2023-05-08T05:55:39;99247.16;;;12.23;100.00
29903;BME280;30288;50.514;9.678;2023-05-08T05:57:45;99247.88;;;12.27;100.00
29903;BME280;30288;50.514;9.678;2023-05-08T05:59:50;99250.59;;;12.52;100.00
29903;BME280;30288;50.514;9.678;2023-05-08T06:01:57;99249.00;;;12.48;100.00
29903;BME280;30288;50.514;9.678;2023-05-08T06:04:04;99250.97;;;12.38;100.00
29903;BME280;30288;50.514;9.678;2023-05-08T06:06:09;99251.44;;;12.51;100.00
29903;BME280;30288;50.514;9.678;2023-05-08T06:08:14;99251.06;;;12.64;100.00
29903;BME280;30288;50.514;9.678;2023-05-08T06:10:22;99251.75;;;12.69;100.00
29903;BME280;30288;50.514;9.678;2023-05-08T06:12:27;99252.44;;;12.76;100.00
29903;BME280;30288;50.514;9.678;2023-05-08T06:14:34;99248.06;;;12.81;100.00
29903;BME280;30288;50.514;9.678;2023-05-08T06:16:39;99248.59;;;12.92;100.00
29903;BME280;30288;50.514;9.678;2023-05-08T06:18:46;99250.06;;;12.99;100.00
29903;BME280;30288;50.514;9.678;2023-05-08T06:20:55;99252.16;;;12.85;100.00
29903;BME280;30288;50.514;9.678;2023-05-08T06:23:01;99238.69;;;13.14;100.00
29903;BME280;30288;50.514;9.678;2023-05-08T06:25:08;99246.50;;;13.06;100.00
29903;BME280;30288;50.514;9.678;2023-05-08T06:27:16;99240.09;;;13.24;100.00
29903;BME280;30288;50.514;9.678;2023-05-08T06:29:22;99241.63;;;13.28;100.00
29903;BME280;30288;50.514;9.678;2023-05-08T06:31:27;99242.97;;;13.40;100.00
29903;BME280;30288;50.514;9.678;2023-05-08T06:33:32;99244.72;;;13.08;100.00
29903;BME280;30288;50.514;9.678;2023-05-08T06:35:37;99250.59;;;12.81;100.00
29903;BME280;30288;50.514;9.678;2023-05-08T06:37:42;99248.34;;;13.01;100.00
29903;BME280;30288;50.514;9.678;2023-05-08T06:39:47;99245.84;;;13.29;100.00
29903;BME280;30288;50.514;9.678;2023-05-08T06:42:12;99250.56;;;13.40;100.00
29903;BME280;30288;50.514;9.678;2023-05-08T06:44:22;99248.91;;;13.65;100.00
29903;BME280;30288;50.514;9.678;2023-05-08T06:46:27;99246.00;;;13.77;100.00
29903;BME280;30288;50.514;9.678;2023-05-08T06:48:33;99252.97;;;13.69;100.00
29903;BME280;30288;50.514;9.678;2023-05-08T06:50:39;99239.44;;;13.70;100.00
29903;BME280;30288;50.514;9.678;2023-05-08T06:52:45;99247.63;;;13.78;100.00
29903;BME280;30288;50.514;9.678;2023-05-08T06:54:50;99246.91;;;13.99;100.00
29903;BME280;30288;50.514;9.678;2023-05-08T06:56:55;99242.34;;;14.11;100.00
29903;BME280;30288;50.514;9.678;2023-05-08T06:59:00;99243.44;;;14.02;100.00
29903;BME280;30288;50.514;9.678;2023-05-08T07:01:12;99250.25;;;14.01;100.00
29903;BME280;30288;50.514;9.678;2023-05-08T07:03:18;99247.75;;;14.25;100.00
29903;BME280;30288;50.514;9.678;2023-05-08T07:05:24;99254.69;;;14.20;100.00
29903;BME280;30288;50.514;9.678;2023-05-08T07:07:29;99249.97;;;14.34;100.00
29903;BME280;30288;50.514;9.678;2023-05-08T07:09:34;99253.97;;;14.41;100.00
29903;BME280;30288;50.514;9.678;2023-05-08T07:11:39;99257.06;;;14.49;100.00
29903;BME280;30288;50.514;9.678;2023-05-08T07:13:45;99249.13;;;14.81;100.00
29903;BME280;30288;50.514;9.678;2023-05-08T07:15:50;99259.28;;;14.81;100.00
29903;BME280;30288;50.514;9.678;2023-05-08T07:17:58;99249.63;;;15.13;100.00
29903;BME280;30288;50.514;9.678;2023-05-08T07:20:06;99255.03;;;15.04;100.00
29903;BME280;30288;50.514;9.678;2023-05-08T07:22:11;99252.50;;;15.04;100.00
29903;BME280;30288;50.514;9.678;2023-05-08T07:24:17;99254.47;;;15.19;100.00
29903;BME280;30288;50.514;9.678;2023-05-08T07:26:22;99264.38;;;15.03;100.00
29903;BME280;30288;50.514;9.678;2023-05-08T07:28:27;99257.53;;;15.05;100.00
29903;BME280;30288;50.514;9.678;2023-05-08T07:30:32;99263.53;;;15.03;100.00
29903;BME280;30288;50.514;9.678;2023-05-08T07:32:37;99252.81;;;15.18;100.00
29903;BME280;30288;50.514;9.678;2023-05-08T07:34:45;99249.50;;;15.16;100.00
29903;BME280;30288;50.514;9.678;2023-05-08T07:36:50;99254.69;;;15.13;100.00
29903;BME280;30288;50.514;9.678;2023-05-08T07:38:56;99251.63;;;15.26;100.00
29903;BME280;30288;50.514;9.678;2023-05-08T07:41:01;99250.38;;;15.37;100.00
29903;BME280;30288;50.514;9.678;2023-05-08T07:43:06;99251.81;;;15.44;100.00
29903;BME280;30288;50.514;9.678;2023-05-08T07:45:12;99251.94;;;15.62;100.00
29903;BME280;30288;50.514;9.678;2023-05-08T07:47:18;99249.94;;;15.91;100.00
29903;BME280;30288;50.514;9.678;2023-05-08T07:49:23;99248.00;;;16.16;100.00
29903;BME280;30288;50.514;9.678;2023-05-08T07:51:31;99255.47;;;16.00;100.00
29903;BME280;30288;50.514;9.678;2023-05-08T07:53:36;99259.03;;;15.96;100.00
29903;BME280;30288;50.514;9.678;2023-05-08T07:55:41;99254.94;;;16.12;100.00
29903;BME280;30288;50.514;9.678;2023-05-08T07:57:47;99245.03;;;16.06;100.00
29903;BME280;30288;50.514;9.678;2023-05-08T07:59:52;99249.78;;;16.34;100.00
29903;BME280;30288;50.514;9.678;2023-05-08T08:01:57;99249.88;;;16.51;100.00
29903;BME280;30288;50.514;9.678;2023-05-08T08:04:03;99252.19;;;16.76;100.00
29903;BME280;30288;50.514;9.678;2023-05-08T08:06:09;99255.78;;;16.72;100.00
29903;BME280;30288;50.514;9.678;2023-05-08T08:08:17;99249.84;;;17.09;100.00
29903;BME280;30288;50.514;9.678;2023-05-08T08:10:22;99251.78;;;17.04;100.00
29903;BME280;30288;50.514;9.678;2023-05-08T08:12:28;99240.56;;;17.25;100.00
29903;BME280;30288;50.514;9.678;2023-05-08T08:14:33;99247.31;;;17.26;100.00
29903;BME280;30288;50.514;9.678;2023-05-08T08:16:38;99243.88;;;17.27;100.00
29903;BME280;30288;50.514;9.678;2023-05-08T08:18:44;99247.03;;;17.32;100.00
29903;BME280;30288;50.514;9.678;2023-05-08T08:20:49;99243.59;;;17.69;100.00
29903;BME280;30288;50.514;9.678;2023-05-08T08:22:54;99245.31;;;18.03;100.00
29903;BME280;30288;50.514;9.678;2023-05-08T08:25:02;99240.81;;;18.41;100.00
29903;BME280;30288;50.514;9.678;2023-05-08T08:27:08;99245.84;;;18.25;100.00
29903;BME280;30288;50.514;9.678;2023-05-08T08:29:13;99241.63;;;18.09;100.00
29903;BME280;30288;50.514;9.678;2023-05-08T08:31:18;99243.53;;;18.21;100.00
29903;BME280;30288;50.514;9.678;2023-05-08T08:33:23;99245.72;;;18.28;100.00
29903;BME280;30288;50.514;9.678;2023-05-08T08:35:32;99242.59;;;18.23;100.00
29903;BME280;30288;50.514;9.678;2023-05-08T08:37:37;99233.88;;;18.27;100.00
29903;BME280;30288;50.514;9.678;2023-05-08T08:39:43;99240.63;;;18.28;100.00
29903;BME280;30288;50.514;9.678;2023-05-08T08:41:52;99235.53;;;18.28;100.00
29903;BME280;30288;50.514;9.678;2023-05-08T08:43:57;99240.38;;;18.66;100.00
29903;BME280;30288;50.514;9.678;2023-05-08T08:46:09;99226.91;;;18.95;100.00
29903;BME280;30288;50.514;9.678;2023-05-08T08:48:16;99221.13;;;19.07;100.00
29903;BME280;30288;50.514;9.678;2023-05-08T08:50:24;99221.56;;;19.00;100.00
29903;BME280;30288;50.514;9.678;2023-05-08T08:52:35;99222.13;;;18.89;100.00
29903;BME280;30288;50.514;9.678;2023-05-08T08:54:43;99217.13;;;19.33;100.00
29903;BME280;30288;50.514;9.678;2023-05-08T08:56:55;99218.06;;;19.48;100.00
29903;BME280;30288;50.514;9.678;2023-05-08T08:59:01;99220.47;;;19.19;100.00
29903;BME280;30288;50.514;9.678;2023-05-08T09:01:07;99219.19;;;19.27;100.00
29903;BME280;30288;50.514;9.678;2023-05-08T09:03:13;99214.84;;;19.13;100.00
29903;BME280;30288;50.514;9.678;2023-05-08T09:05:21;99218.63;;;19.37;100.00
29903;BME280;30288;50.514;9.678;2023-05-08T09:07:28;99221.59;;;19.45;100.00
29903;BME280;30288;50.514;9.678;2023-05-08T09:09:34;99218.28;;;19.43;100.00
29903;BME280;30288;50.514;9.678;2023-05-08T09:11:43;99217.59;;;19.40;100.00
29903;BME280;30288;50.514;9.678;2023-05-08T09:13:53;99211.78;;;19.67;100.00
29903;BME280;30288;50.514;9.678;2023-05-08T09:15:59;99216.25;;;19.64;100.00
29903;BME280;30288;50.514;9.678;2023-05-08T09:18:05;99217.78;;;19.37;100.00
29903;BME280;30288;50.514;9.678;2023-05-08T09:20:13;99217.06;;;19.64;100.00
29903;BME280;30288;50.514;9.678;2023-05-08T09:22:19;99220.50;;;19.79;100.00
29903;BME280;30288;50.514;9.678;2023-05-08T09:24:25;99215.56;;;19.76;100.00
29903;BME280;30288;50.514;9.678;2023-05-08T09:26:34;99208.06;;;19.87;100.00
29903;BME280;30288;50.514;9.678;2023-05-08T09:28:39;99216.88;;;20.12;100.00
29903;BME280;30288;50.514;9.678;2023-05-08T09:30:52;99218.22;;;19.89;100.00
29903;BME280;30288;50.514;9.678;2023-05-08T09:33:01;99208.09;;;20.16;100.00
29903;BME280;30288;50.514;9.678;2023-05-08T09:35:08;99210.66;;;20.01;100.00
29903;BME280;30288;50.514;9.678;2023-05-08T09:37:14;99209.53;;;19.91;100.00
29903;BME280;30288;50.514;9.678;2023-05-08T09:39:24;99217.56;;;19.71;100.00
29903;BME280;30288;50.514;9.678;2023-05-08T09:41:30;99214.97;;;19.57;100.00
29903;BME280;30288;50.514;9.678;2023-05-08T09:43:35;99216.25;;;19.64;100.00
29903;BME280;30288;50.514;9.678;2023-05-08T09:45:40;99220.69;;;19.76;100.00
29903;BME280;30288;50.514;9.678;2023-05-08T09:47:49;99212.41;;;19.57;100.00
29903;BME280;30288;50.514;9.678;2023-05-08T09:49:58;99218.94;;;19.47;100.00
29903;BME280;30288;50.514;9.678;2023-05-08T09:52:04;99211.22;;;20.06;100.00
29903;BME280;30288;50.514;9.678;2023-05-08T09:54:17;99219.91;;;20.04;100.00
29903;BME280;30288;50.514;9.678;2023-05-08T09:56:33;99215.41;;;19.93;100.00
29903;BME280;30288;50.514;9.678;2023-05-08T09:58:41;99222.72;;;19.99;100.00
29903;BME280;30288;50.514;9.678;2023-05-08T10:00:46;99227.41;;;19.77;100.00
29903;BME280;30288;50.514;9.678;2023-05-08T10:02:59;99225.84;;;20.04;100.00
29903;BME280;30288;50.514;9.678;2023-05-08T10:05:22;99227.44;;;20.05;100.00
29903;BME280;30288;50.514;9.678;2023-05-08T10:07:29;99225.13;;;20.31;100.00
29903;BME280;30288;50.514;9.678;2023-05-08T10:09:34;99222.53;;;20.17;100.00
29903;BME280;30288;50.514;9.678;2023-05-08T10:11:52;99232.81;;;20.31;100.00
29903;BME280;30288;50.514;9.678;2023-05-08T10:13:57;99234.66;;;20.43;100.00
29903;BME280;30288;50.514;9.678;2023-05-08T10:16:04;99234.34;;;20.19;100.00
29903;BME280;30288;50.514;9.678;2023-05-08T10:18:14;99240.47;;;20.31;100.00
29903;BME280;30288;50.514;9.678;2023-05-08T10:20:24;99231.91;;;20.32;100.00
29903;BME280;30288;50.514;9.678;2023-05-08T10:22:32;99237.53;;;20.23;100.00
29903;BME280;30288;50.514;9.678;2023-05-08T10:24:43;99233.34;;;20.50;100.00
29903;BME280;30288;50.514;9.678;2023-05-08T10:26:56;99239.50;;;20.47;100.00
29903;BME280;30288;50.514;9.678;2023-05-08T10:29:16;99236.38;;;20.57;100.00
29903;BME280;30288;50.514;9.678;2023-05-08T10:31:24;99236.19;;;20.45;100.00
29903;BME280;30288;50.514;9.678;2023-05-08T10:33:38;99228.75;;;20.69;100.00
29903;BME280;30288;50.514;9.678;2023-05-08T10:35:44;99234.94;;;20.93;100.00
29903;BME280;30288;50.514;9.678;2023-05-08T10:37:49;99227.03;;;20.96;100.00
29903;BME280;30288;50.514;9.678;2023-05-08T10:39:57;99230.22;;;20.73;100.00
29903;BME280;30288;50.514;9.678;2023-05-08T10:42:02;99230.78;;;20.64;100.00
29903;BME280;30288;50.514;9.678;2023-05-08T10:44:09;99228.72;;;20.83;100.00
29903;BME280;30288;50.514;9.678;2023-05-08T10:46:29;99229.81;;;20.52;100.00
29903;BME280;30288;50.514;9.678;2023-05-08T10:48:49;99228.59;;;20.58;100.00
29903;BME280;30288;50.514;9.678;2023-05-08T10:51:05;99231.34;;;20.55;100.00
29903;BME280;30288;50.514;9.678;2023-05-08T10:53:18;99232.78;;;20.59;100.00
29903;BME280;30288;50.514;9.678;2023-05-08T10:55:29;99231.66;;;20.77;100.00
29903;BME280;30288;50.514;9.678;2023-05-08T10:57:34;99227.09;;;20.82;100.00
29903;BME280;30288;50.514;9.678;2023-05-08T10:59:44;99229.19;;;20.90;100.00
29903;BME280;30288;50.514;9.678;2023-05-08T11:01:49;99225.97;;;20.86;100.00
29903;BME280;30288;50.514;9.678;2023-05-08T11:03:57;99231.22;;;20.85;100.00
29903;BME280;30288;50.514;9.678;2023-05-08T11:06:03;99224.50;;;20.96;100.00
29903;BME280;30288;50.514;9.678;2023-05-08T11:08:14;99224.53;;;20.82;100.00
29903;BME280;30288;50.514;9.678;2023-05-08T11:10:21;99228.19;;;20.78;100.00